#dbistima — V2PX5 — position and weather

sailwx.info

Track history (hours):
 
Tides and Currents Weather Stations Pressure Air Temp Water Temp Dewpoint Dewpoint Depression Visibility Wind Speed Wind Dir Waves Ship Positions

#dbistima

Last reported at 2015-Jul-01 05:33 UTC. Time now 2015-Jul-01 06:38 UTC.
Position N 54°49' E 012°48'.

MMSI: 304010972.

Date/timePositionNaut miles runAvg speedWind from/ knotsBaromVisibWave heightAir tempDewpointWater temp
2015-Jul-01 05:33N 54°49' E 012°48'11 8.7
2015-Jul-01 04:15N 54°53' E 013°07'6 8.5
2015-Jul-01 03:33N 54°54' E 013°16'9 8.6
2015-Jul-01 02:33N 54°54' E 013°31'9 8.6
2015-Jul-01 01:27N 54°54' E 013°48'9 8.7
2015-Jul-01 00:28N 54°54' E 014°03'8 8.6
2015-Jun-30 23:33N 54°54' E 014°16'9 8.3
2015-Jun-30 22:28N 54°54' E 014°32'8 8.3
2015-Jun-30 21:33N 54°53' E 014°45'8 8.4
2015-Jun-30 20:33N 54°54' E 014°60'8 8.4
2015-Jun-30 19:34N 54°56' E 015°14'8 8.1
2015-Jun-30 18:34N 54°58' E 015°27'9 8.1
2015-Jun-30 17:25N 55°00' E 015°43'58 8.2
2015-Jun-30 10:20N 55°14' E 017°22'18 8.2
2015-Jun-30 08:09N 55°18' E 017°52'22 8.3
2015-Jun-30 05:29N 55°24' E 018°30'8 8.2
2015-Jun-30 04:33N 55°26' E 018°43'8 8.3
2015-Jun-30 03:33N 55°28' E 018°57'8 8.4
2015-Jun-30 02:33N 55°30' E 019°11'67 1.8
2015-Jun-28 13:06N 55°40' E 021°09'4 7.3
2015-Jun-28 12:34N 55°43' E 021°06'10 8.5
2015-Jun-28 11:26N 55°44' E 020°49'55 9.1
2015-Jun-28 05:21N 55°38' E 019°11'7 8.9
2015-Jun-28 04:33N 55°37' E 018°59'103 9.3
2015-Jun-27 17:32N 55°27' E 015°59'9 9.6
2015-Jun-27 16:34N 55°26' E 015°42'9 9.4
2015-Jun-27 15:34N 55°26' E 015°26'9 9.3
2015-Jun-27 14:33N 55°24' E 015°09'9 9.2
2015-Jun-27 13:34N 55°24' E 014°53'17 8.4
2015-Jun-27 11:33N 55°15' E 014°28'52 8.5
2015-Jun-27 05:26N 55°15' E 012°57'8 9.0
2015-Jun-27 04:33N 55°17' E 012°43'7 6.8
2015-Jun-27 03:33N 55°23' E 012°39'9 8.6
2015-Jun-27 02:33N 55°32' E 012°42'8 7.8
2015-Jun-27 01:33N 55°39' E 012°41'8 7.9
2015-Jun-27 00:33N 55°47' E 012°42'8 8.5
2015-Jun-26 23:33N 55°55' E 012°38'8 8.0
2015-Jun-26 22:33N 56°03' E 012°38'8 8.3
2015-Jun-26 21:33N 56°09' E 012°27'9 9.0
2015-Jun-26 20:33N 56°14' E 012°13'9 8.6
2015-Jun-26 19:32N 56°20' E 012°03'19 9.3
2015-Jun-26 17:28N 56°39' E 011°55'9 9.4
2015-Jun-26 16:33N 56°47' E 011°51'10 9.7
2015-Jun-26 15:33N 56°57' E 011°45'10 9.5
2015-Jun-26 14:33N 57°05' E 011°39'13 9.6
2015-Jun-26 13:12N 57°18' E 011°31'6 9.8
2015-Jun-26 12:33N 57°24' E 011°27'9 9.1
2015-Jun-26 11:33N 57°31' E 011°17'10 9.9
2015-Jun-26 10:33N 57°38' E 011°03'9 9.4
2015-Jun-26 09:33N 57°44' E 010°50'264 8.2
2015-Jun-25 01:20N 54°10' E 006°15'16 8.9
2015-Jun-24 23:32N 53°54' E 006°11'17 8.1
2015-Jun-24 21:28N 53°39' E 006°22'8 8.4
2015-Jun-24 20:30N 53°36' E 006°35'1011.0
2015-Jun-24 19:33N 53°30' E 006°49'1111.4
2015-Jun-24 18:33N 53°20' E 006°60'7 7.0
2015-Jun-24 17:33N 53°20' E 007°11'1 1.0
2015-Jun-24 16:33N 53°21' E 007°12'0 0.0
2015-Jun-24 14:18N 53°21' E 007°12'0 0.1
2015-Jun-24 13:27N 53°21' E 007°12'0 0.0
2015-Jun-24 11:29N 53°21' E 007°12'0 0.0
2015-Jun-24 10:23N 53°21' E 007°12'0 0.0
2015-Jun-24 08:32N 53°21' E 007°12'0 0.0
2015-Jun-24 07:26N 53°21' E 007°12'0 0.0
2015-Jun-24 05:11N 53°21' E 007°12'0 0.0
2015-Jun-24 01:20N 53°21' E 007°12'0 0.0
2015-Jun-24 00:20N 53°21' E 007°12'0 0.0
2015-Jun-23 23:26N 53°21' E 007°12'0 0.0
2015-Jun-23 21:05N 53°21' E 007°12'0 0.0
2015-Jun-23 20:29N 53°21' E 007°12'0 0.0
2015-Jun-22 19:32N 53°21' E 007°12'0 0.0
2015-Jun-22 18:29N 53°21' E 007°12'0 0.0
2015-Jun-22 17:20N 53°21' E 007°12'0 0.0
2015-Jun-22 15:14N 53°21' E 007°12'0 0.0
2015-Jun-22 14:29N 53°21' E 007°12'0 0.0
2015-Jun-22 13:32N 53°21' E 007°12'0 0.0
2015-Jun-22 12:29N 53°21' E 007°12'0 0.0
2015-Jun-22 11:32N 53°21' E 007°12'0 0.0
2015-Jun-22 10:32N 53°21' E 007°12'0 0.0
2015-Jun-22 08:29N 53°21' E 007°12'0 0.0
2015-Jun-22 07:08N 53°21' E 007°12'0 0.0
2015-Jun-22 06:29N 53°21' E 007°12'0 0.0
2015-Jun-22 03:17N 53°21' E 007°12'0 0.0
2015-Jun-21 18:14N 53°21' E 007°12'0 0.0
2015-Jun-21 17:32N 53°21' E 007°12'0 0.0
2015-Jun-21 16:20N 53°21' E 007°12'0 0.0
2015-Jun-21 15:32N 53°21' E 007°12'0 0.0
2015-Jun-21 14:32N 53°21' E 007°12'0 0.0
2015-Jun-21 13:29N 53°21' E 007°12'0 0.0
2015-Jun-21 12:32N 53°21' E 007°12'0 0.0
2015-Jun-21 11:32N 53°21' E 007°12'0 0.0
2015-Jun-21 10:32N 53°21' E 007°12'0 0.0
2015-Jun-21 09:20N 53°21' E 007°12'0 0.0
2015-Jun-21 08:08N 53°21' E 007°12'0 0.0
2015-Jun-21 07:26N 53°21' E 007°12'0 0.0
2015-Jun-21 06:32N 53°21' E 007°12'  
Track history (hours):
 
Tides and Currents Weather Stations Pressure Air Temp Water Temp Dewpoint Dewpoint Depression Visibility Wind Speed Wind Dir Waves Ship Positions

#dbistima

Last reported at 2015-Jul-01 05:33 UTC. Time now 2015-Jul-01 06:38 UTC.
Position N 54°49' E 012°48'.

MMSI: 304010972.

Date/timePositionNaut miles runAvg speedWind from/ knotsBaromVisibWave heightAir tempDewpointWater temp
2015-Jul-01 05:33N 54°49' E 012°48'11 8.7
2015-Jul-01 04:15N 54°53' E 013°07'6 8.5
2015-Jul-01 03:33N 54°54' E 013°16'9 8.6
2015-Jul-01 02:33N 54°54' E 013°31'9 8.6
2015-Jul-01 01:27N 54°54' E 013°48'9 8.7
2015-Jul-01 00:28N 54°54' E 014°03'8 8.6
2015-Jun-30 23:33N 54°54' E 014°16'9 8.3
2015-Jun-30 22:28N 54°54' E 014°32'8 8.3
2015-Jun-30 21:33N 54°53' E 014°45'8 8.4
2015-Jun-30 20:33N 54°54' E 014°60'8 8.4
2015-Jun-30 19:34N 54°56' E 015°14'8 8.1
2015-Jun-30 18:34N 54°58' E 015°27'9 8.1
2015-Jun-30 17:25N 55°00' E 015°43'58 8.2
2015-Jun-30 10:20N 55°14' E 017°22'18 8.2
2015-Jun-30 08:09N 55°18' E 017°52'22 8.3
2015-Jun-30 05:29N 55°24' E 018°30'8 8.2
2015-Jun-30 04:33N 55°26' E 018°43'8 8.3
2015-Jun-30 03:33N 55°28' E 018°57'8 8.4
2015-Jun-30 02:33N 55°30' E 019°11'67 1.8
2015-Jun-28 13:06N 55°40' E 021°09'4 7.3
2015-Jun-28 12:34N 55°43' E 021°06'10 8.5
2015-Jun-28 11:26N 55°44' E 020°49'55 9.1
2015-Jun-28 05:21N 55°38' E 019°11'7 8.9
2015-Jun-28 04:33N 55°37' E 018°59'103 9.3
2015-Jun-27 17:32N 55°27' E 015°59'9 9.6
2015-Jun-27 16:34N 55°26' E 015°42'9 9.4
2015-Jun-27 15:34N 55°26' E 015°26'9 9.3
2015-Jun-27 14:33N 55°24' E 015°09'9 9.2
2015-Jun-27 13:34N 55°24' E 014°53'17 8.4
2015-Jun-27 11:33N 55°15' E 014°28'52 8.5
2015-Jun-27 05:26N 55°15' E 012°57'8 9.0
2015-Jun-27 04:33N 55°17' E 012°43'7 6.8
2015-Jun-27 03:33N 55°23' E 012°39'9 8.6
2015-Jun-27 02:33N 55°32' E 012°42'8 7.8
2015-Jun-27 01:33N 55°39' E 012°41'8 7.9
2015-Jun-27 00:33N 55°47' E 012°42'8 8.5
2015-Jun-26 23:33N 55°55' E 012°38'8 8.0
2015-Jun-26 22:33N 56°03' E 012°38'8 8.3
2015-Jun-26 21:33N 56°09' E 012°27'9 9.0
2015-Jun-26 20:33N 56°14' E 012°13'9 8.6
2015-Jun-26 19:32N 56°20' E 012°03'19 9.3
2015-Jun-26 17:28N 56°39' E 011°55'9 9.4
2015-Jun-26 16:33N 56°47' E 011°51'10 9.7
2015-Jun-26 15:33N 56°57' E 011°45'10 9.5
2015-Jun-26 14:33N 57°05' E 011°39'13 9.6
2015-Jun-26 13:12N 57°18' E 011°31'6 9.8
2015-Jun-26 12:33N 57°24' E 011°27'9 9.1
2015-Jun-26 11:33N 57°31' E 011°17'10 9.9
2015-Jun-26 10:33N 57°38' E 011°03'9 9.4
2015-Jun-26 09:33N 57°44' E 010°50'264 8.2
2015-Jun-25 01:20N 54°10' E 006°15'16 8.9
2015-Jun-24 23:32N 53°54' E 006°11'17 8.1
2015-Jun-24 21:28N 53°39' E 006°22'8 8.4
2015-Jun-24 20:30N 53°36' E 006°35'1011.0
2015-Jun-24 19:33N 53°30' E 006°49'1111.4
2015-Jun-24 18:33N 53°20' E 006°60'7 7.0
2015-Jun-24 17:33N 53°20' E 007°11'1 1.0
2015-Jun-24 16:33N 53°21' E 007°12'0 0.0
2015-Jun-24 14:18N 53°21' E 007°12'0 0.1
2015-Jun-24 13:27N 53°21' E 007°12'0 0.0
2015-Jun-24 11:29N 53°21' E 007°12'0 0.0
2015-Jun-24 10:23N 53°21' E 007°12'0 0.0
2015-Jun-24 08:32N 53°21' E 007°12'0 0.0
2015-Jun-24 07:26N 53°21' E 007°12'0 0.0
2015-Jun-24 05:11N 53°21' E 007°12'0 0.0
2015-Jun-24 01:20N 53°21' E 007°12'0 0.0
2015-Jun-24 00:20N 53°21' E 007°12'0 0.0
2015-Jun-23 23:26N 53°21' E 007°12'0 0.0
2015-Jun-23 21:05N 53°21' E 007°12'0 0.0
2015-Jun-23 20:29N 53°21' E 007°12'0 0.0
2015-Jun-22 19:32N 53°21' E 007°12'0 0.0
2015-Jun-22 18:29N 53°21' E 007°12'0 0.0
2015-Jun-22 17:20N 53°21' E 007°12'0 0.0
2015-Jun-22 15:14N 53°21' E 007°12'0 0.0
2015-Jun-22 14:29N 53°21' E 007°12'0 0.0
2015-Jun-22 13:32N 53°21' E 007°12'0 0.0
2015-Jun-22 12:29N 53°21' E 007°12'0 0.0
2015-Jun-22 11:32N 53°21' E 007°12'0 0.0
2015-Jun-22 10:32N 53°21' E 007°12'0 0.0
2015-Jun-22 08:29N 53°21' E 007°12'0 0.0
2015-Jun-22 07:08N 53°21' E 007°12'0 0.0
2015-Jun-22 06:29N 53°21' E 007°12'0 0.0
2015-Jun-22 03:17N 53°21' E 007°12'0 0.0
2015-Jun-21 18:14N 53°21' E 007°12'0 0.0
2015-Jun-21 17:32N 53°21' E 007°12'0 0.0
2015-Jun-21 16:20N 53°21' E 007°12'0 0.0
2015-Jun-21 15:32N 53°21' E 007°12'0 0.0
2015-Jun-21 14:32N 53°21' E 007°12'0 0.0
2015-Jun-21 13:29N 53°21' E 007°12'0 0.0
2015-Jun-21 12:32N 53°21' E 007°12'0 0.0
2015-Jun-21 11:32N 53°21' E 007°12'0 0.0
2015-Jun-21 10:32N 53°21' E 007°12'0 0.0
2015-Jun-21 09:20N 53°21' E 007°12'0 0.0
2015-Jun-21 08:08N 53°21' E 007°12'0 0.0
2015-Jun-21 07:26N 53°21' E 007°12'0 0.0
2015-Jun-21 06:32N 53°21' E 007°12'  

Dump ship's entire track history